Time;durP1;ratioP1;P1;durP2;ratioP2;P2;SDS_P1;SDS_P2;PMS_P1;PMS_P2;Temp;Humidity;BMP_temperature;BMP_pressure;BME280_temperature;BME280_humidity;BME280_pressure;Samples;Min_cycle;Max_cycle;Signal;HPM_P1;HPM_P2
2022/04/14 01:32:43;;;;;;;0.40;0.40;;;;;;;6.22;49.44;98083.25;5119487;27;20387;-65
2022/04/14 01:35:09;;;;;;;4.97;1.05;;;;;;;6.30;50.59;98083.81;5115453;27;20413;-64
2022/04/14 01:37:35;;;;;;;0.82;0.82;;;;;;;6.42;51.24;98100.25;5110941;28;20049;-65
2022/04/14 01:40:01;;;;;;;0.80;0.80;;;;;;;6.49;51.94;98092.00;5111059;28;20036;-66
2022/04/14 01:42:26;;;;;;;0.75;0.43;;;;;;;6.58;52.29;98084.34;5122192;28;20032;-63
2022/04/14 01:44:52;;;;;;;1.00;1.00;;;;;;;6.69;52.56;98093.69;5120831;28;20044;-65
2022/04/14 01:47:18;;;;;;;0.70;0.70;;;;;;;6.76;52.70;98084.34;5123521;27;20084;-64
2022/04/14 01:49:43;;;;;;;0.88;0.88;;;;;;;6.86;53.10;98091.16;5111240;27;20044;-62
2022/04/14 01:52:09;;;;;;;0.95;0.88;;;;;;;6.94;53.07;98097.16;5109397;28;20485;-64
2022/04/14 01:54:35;;;;;;;2.88;1.42;;;;;;;7.02;53.20;98079.63;5120314;28;20546;-62
2022/04/14 01:57:00;;;;;;;3.28;0.73;;;;;;;7.12;53.21;98081.81;5108961;28;20162;-65
2022/04/14 01:59:26;;;;;;;1.67;1.02;;;;;;;7.19;53.22;98083.38;5110322;28;20035;-65
2022/04/14 02:01:52;;;;;;;1.20;1.10;;;;;;;7.31;53.23;98085.34;5110724;28;20023;-66
2022/04/14 02:04:17;;;;;;;3.67;1.38;;;;;;;7.42;53.26;98091.88;5107875;28;20123;-65
2022/04/14 02:06:43;;;;;;;1.60;1.50;;;;;;;7.47;53.32;98098.31;5121433;27;20039;-63
2022/04/14 02:09:09;;;;;;;1.25;1.15;;;;;;;7.51;53.26;98099.53;5110216;28;20168;-66
2022/04/14 02:11:34;;;;;;;1.30;1.15;;;;;;;7.53;53.43;98102.84;5119718;28;20027;-65
2022/04/14 02:14:00;;;;;;;0.90;0.90;;;;;;;7.52;53.58;98105.81;5109832;28;20039;-65
2022/04/14 02:16:26;;;;;;;0.90;0.63;;;;;;;7.56;53.54;98107.03;5113131;28;20508;-65
2022/04/14 02:18:51;;;;;;;5.00;1.20;;;;;;;7.62;53.55;98106.09;5124553;28;20038;-64
2022/04/14 02:21:17;;;;;;;2.10;1.92;;;;;;;7.69;53.54;98112.28;5127770;27;20488;-65
2022/04/14 02:23:43;;;;;;;1.20;1.13;;;;;;;7.76;53.50;98108.63;5127912;27;20036;-66
2022/04/14 02:26:09;;;;;;;1.02;0.95;;;;;;;7.79;53.50;98116.34;5127799;27;20032;-65
2022/04/14 02:28:34;;;;;;;4.68;0.68;;;;;;;7.85;53.57;98109.97;5110198;27;20046;-67
2022/04/14 02:31:00;;;;;;;0.55;0.55;;;;;;;7.89;53.45;98108.41;5109571;27;20059;-65
2022/04/14 02:33:25;;;;;;;1.40;1.23;;;;;;;7.95;53.56;98104.75;5110573;27;20038;-67
2022/04/14 02:35:52;;;;;;;1.15;1.02;;;;;;;8.04;53.46;98107.97;5108012;28;20036;-66
2022/04/14 02:38:17;;;;;;;0.68;0.68;;;;;;;8.11;53.26;98103.22;5124935;27;20540;-69
2022/04/14 02:40:43;;;;;;;3.50;1.65;;;;;;;8.15;53.32;98098.94;5109224;28;20051;-64
2022/04/14 02:43:08;;;;;;;1.83;1.08;;;;;;;8.24;53.26;98107.63;5100948;28;20036;-66
2022/04/14 02:45:34;;;;;;;2.00;1.58;;;;;;;8.34;53.07;98112.50;5115483;28;20126;-65
2022/04/14 02:48:00;;;;;;;0.60;0.60;;;;;;;8.38;52.96;98114.53;5112910;28;20580;-65
2022/04/14 02:50:26;;;;;;;1.40;1.02;;;;;;;8.44;52.96;98111.94;5096066;28;20456;-66
2022/04/14 02:52:51;;;;;;;2.67;1.92;;;;;;;8.50;52.99;98111.00;5107441;28;20031;-64
2022/04/14 02:55:20;;;;;;;6.55;1.25;;;;;;;8.64;52.85;98114.31;5099968;28;20043;-64
2022/04/14 02:57:48;;;;;;;0.50;0.50;;;;;;;8.87;52.55;98110.72;5101871;28;20454;-61
2022/04/14 03:00:14;;;;;;;6.28;1.60;;;;;;;9.14;52.06;98107.44;5093379;28;20039;-63
2022/04/14 03:03:23;;;;;;;4.03;2.22;;;;;;;9.51;51.55;98105.16;5097919;28;20036;-63
2022/04/14 03:06:29;;;;;;;3.92;2.10;;;;;;;9.97;50.72;98099.66;5096133;27;20122;-62
2022/04/14 03:12:41;;;;;;;0.70;0.70;;;;;;;14.05;43.83;98100.28;5095814;28;20046;-64
2022/04/14 03:15:49;;;;;;;1.30;1.20;;;;;;;13.69;44.89;98102.97;5078691;28;20122;-63
2022/04/14 03:19:10;;;;;;;0.70;0.70;;;;;;;16.65;40.55;98092.22;5094178;28;20547;-63
2022/04/14 03:21:35;;;;;;;0.73;0.73;;;;;;;19.25;37.01;98085.03;5096637;27;20047;-60
2022/04/14 03:24:01;;;;;;;0.55;0.55;;;;;;;21.19;35.07;98079.84;5094215;28;20040;-62
2022/04/14 03:26:27;;;;;;;1.52;1.35;;;;;;;22.67;33.91;98087.56;5094290;28;20061;-61
2022/04/14 03:28:52;;;;;;;0.20;0.20;;;;;;;23.88;33.50;98089.34;5093599;28;20051;-62
2022/04/14 03:31:18;;;;;;;0.65;0.65;;;;;;;24.79;33.00;98089.56;5093699;28;20406;-64
2022/04/14 03:33:44;;;;;;;2.92;1.10;;;;;;;25.61;32.35;98090.69;5094216;28;20476;-65
2022/04/14 03:36:09;;;;;;;1.90;0.55;;;;;;;26.45;32.08;98089.22;5093135;28;20093;-64
2022/04/14 03:38:35;;;;;;;3.75;0.40;;;;;;;27.16;31.69;98086.75;5094385;28;20055;-63
2022/04/14 03:41:04;;;;;;;0.47;0.47;;;;;;;27.84;31.55;98084.81;5094176;28;20062;-64
2022/04/14 03:43:33;;;;;;;0.52;0.52;;;;;;;28.29;31.52;98071.28;5092562;28;20320;-63
2022/04/14 03:45:59;;;;;;;0.55;0.55;;;;;;;28.79;31.58;98089.25;5093947;28;20038;-65
2022/04/14 03:48:25;;;;;;;0.50;0.50;;;;;;;29.22;31.14;98083.59;5093745;28;20190;-62
2022/04/14 03:50:51;;;;;;;0.30;0.30;;;;;;;29.48;31.03;98087.69;5093714;28;20043;-63
2022/04/14 03:53:18;;;;;;;0.22;0.22;;;;;;;29.77;31.22;98091.78;5092948;28;20370;-64
2022/04/14 03:55:46;;;;;;;1.55;0.77;;;;;;;30.01;31.28;98092.56;5093103;28;20431;-62
2022/04/14 03:58:12;;;;;;;0.50;0.50;;;;;;;30.16;31.32;98096.41;5093475;28;20031;-63
2022/04/14 04:00:38;;;;;;;2.15;1.08;;;;;;;30.41;31.13;98088.25;5093220;28;20043;-64
2022/04/14 04:03:03;;;;;;;0.50;0.50;;;;;;;30.56;30.90;98086.41;5093545;28;20028;-65
2022/04/14 04:05:29;;;;;;;0.85;0.82;;;;;;;30.42;31.31;98092.72;5092949;28;20132;-63
2022/04/14 04:07:55;;;;;;;0.80;0.80;;;;;;;30.61;31.11;98099.41;5093294;28;20032;-65
2022/04/14 04:10:21;;;;;;;2.00;0.75;;;;;;;30.76;30.62;98101.22;5093169;28;20063;-63
2022/04/14 04:12:46;;;;;;;0.52;0.52;;;;;;;30.77;30.68;98093.53;5093241;28;20045;-63
2022/04/14 04:15:12;;;;;;;0.38;0.38;;;;;;;31.23;30.26;98090.38;5093396;28;20043;-63
2022/04/14 04:17:39;;;;;;;0.40;0.40;;;;;;;31.59;29.73;98085.03;5093253;28;20441;-63
2022/04/14 04:20:06;;;;;;;0.40;0.40;;;;;;;31.75;29.79;98077.03;5092982;28;20512;-63
2022/04/14 04:22:34;;;;;;;0.40;0.40;;;;;;;32.00;29.52;98082.06;5093167;28;20040;-62
2022/04/14 04:25:00;;;;;;;0.40;0.40;;;;;;;32.21;29.20;98089.09;5093262;28;20126;-63
2022/04/14 04:27:26;;;;;;;0.35;0.35;;;;;;;31.83;29.59;98089.25;5093130;28;20064;-63
2022/04/14 04:29:52;;;;;;;1.40;1.13;;;;;;;30.42;31.12;98091.88;5092778;28;20043;-62
2022/04/14 04:32:18;;;;;;;4.20;0.90;;;;;;;27.57;34.68;98089.41;5093149;28;20059;-64
2022/04/14 04:34:44;;;;;;;2.55;0.90;;;;;;;24.79;37.88;98088.72;5093188;28;20397;-64
2022/04/14 04:37:10;;;;;;;1.77;1.67;;;;;;;22.67;40.73;98090.34;5092731;28;20126;-61
2022/04/14 04:39:35;;;;;;;0.40;0.40;;;;;;;21.09;42.68;98096.88;5092798;28;20065;-63
2022/04/14 04:42:07;;;;;;;0.75;0.75;;;;;;;19.88;43.49;98096.53;5091814;28;20039;-66
2022/04/14 04:44:32;;;;;;;3.45;1.42;;;;;;;18.94;44.46;98101.53;5092707;28;20074;-63
2022/04/14 04:46:58;;;;;;;1.65;1.48;;;;;;;18.19;44.54;98106.94;5092765;28;20060;-62
2022/04/14 04:49:24;;;;;;;1.83;1.42;;;;;;;17.62;44.78;98095.00;5092639;28;20036;-64
2022/04/14 04:51:49;;;;;;;1.08;0.98;;;;;;;17.16;44.82;98096.41;5092845;28;20119;-64
2022/04/14 04:54:15;;;;;;;2.15;1.15;;;;;;;16.77;44.53;98094.63;5092457;28;20520;-63
2022/04/14 04:56:41;;;;;;;2.88;0.70;;;;;;;16.39;44.65;98111.03;5092640;28;20036;-63
2022/04/14 04:59:08;;;;;;;2.22;1.25;;;;;;;16.02;44.27;98104.09;5092607;28;20028;-64
2022/04/14 05:01:34;;;;;;;1.60;1.27;;;;;;;15.73;44.21;98105.66;5092512;28;20028;-64
2022/04/14 05:03:59;;;;;;;2.92;0.90;;;;;;;15.52;43.92;98106.91;5092890;28;20481;-64
2022/04/14 05:06:25;;;;;;;0.82;0.82;;;;;;;15.34;44.00;98100.91;5091835;28;20020;-65
2022/04/14 05:08:51;;;;;;;1.60;1.20;;;;;;;15.19;43.66;98098.19;5090887;28;20040;-65
2022/04/14 05:11:16;;;;;;;1.02;0.98;;;;;;;15.07;43.27;98104.88;5092470;28;20047;-61
2022/04/14 05:13:42;;;;;;;0.77;0.77;;;;;;;15.02;42.99;98093.00;5092638;28;20451;-64
2022/04/14 05:16:09;;;;;;;1.77;1.30;;;;;;;14.91;42.68;98100.47;5092574;28;20036;-65
2022/04/14 05:18:35;;;;;;;1.35;1.00;;;;;;;14.82;42.79;98097.47;5092325;28;20032;-61
2022/04/14 05:21:02;;;;;;;0.55;0.55;;;;;;;14.70;42.73;98111.59;5092595;28;20508;-62
2022/04/14 05:23:28;;;;;;;1.27;0.93;;;;;;;14.62;42.46;98112.16;5091048;28;20051;-62
2022/04/14 05:25:56;;;;;;;1.25;1.23;;;;;;;14.60;42.39;98113.50;5090982;28;20032;-64
2022/04/14 05:28:21;;;;;;;0.95;0.95;;;;;;;14.58;42.10;98111.03;5092261;28;20478;-62
2022/04/14 05:30:47;;;;;;;0.63;0.63;;;;;;;14.54;42.02;98107.16;5091842;28;20055;-62
2022/04/14 05:33:13;;;;;;;1.42;1.10;;;;;;;14.50;41.71;98115.19;5092169;28;20040;-61
2022/04/14 05:35:39;;;;;;;0.70;0.70;;;;;;;14.50;41.70;98111.56;5091889;28;20049;-61
2022/04/14 05:38:05;;;;;;;0.77;0.77;;;;;;;14.50;41.32;98106.91;5090081;28;20032;-63
2022/04/14 05:40:31;;;;;;;0.68;0.68;;;;;;;14.48;41.53;98102.75;5080015;28;20528;-62
2022/04/14 05:42:57;;;;;;;1.10;0.63;;;;;;;14.38;41.63;98103.56;5070899;28;20085;-64
2022/04/14 05:45:23;;;;;;;1.45;1.02;;;;;;;14.37;41.33;98105.53;5070854;28;20040;-63
2022/04/14 05:47:48;;;;;;;1.10;1.00;;;;;;;14.41;41.13;98107.72;5070827;28;20490;-65
2022/04/14 05:50:14;;;;;;;0.57;0.57;;;;;;;14.40;41.50;98100.53;5070922;28;20039;-65
2022/04/14 05:52:40;;;;;;;2.10;1.33;;;;;;;14.36;41.46;98100.28;5069514;28;20036;-65
2022/04/14 05:55:06;;;;;;;0.60;0.60;;;;;;;14.34;41.33;98102.50;5070714;28;20040;-65
2022/04/14 05:57:32;;;;;;;0.77;0.77;;;;;;;14.33;41.32;98090.59;5070803;28;20075;-64
2022/04/14 05:59:58;;;;;;;0.77;0.77;;;;;;;14.32;41.22;98091.69;5070942;28;20063;-64
2022/04/14 06:02:24;;;;;;;1.23;1.00;;;;;;;14.32;41.03;98104.69;5070446;28;20052;-64
2022/04/14 06:04:50;;;;;;;1.20;1.13;;;;;;;14.27;41.16;98091.72;5070209;28;20037;-63
2022/04/14 06:07:16;;;;;;;1.05;0.68;;;;;;;14.28;40.97;98100.81;5070670;28;20090;-63
2022/04/14 06:09:41;;;;;;;0.57;0.57;;;;;;;14.27;41.12;98111.06;5070352;28;20040;-64
2022/04/14 06:12:08;;;;;;;0.55;0.55;;;;;;;14.26;41.02;98095.56;5070814;28;20036;-63
2022/04/14 06:14:33;;;;;;;1.75;0.65;;;;;;;14.31;41.19;98108.56;5070724;28;20055;-63
2022/04/14 06:17:00;;;;;;;1.35;0.68;;;;;;;14.31;41.12;98103.88;5070671;28;20032;-63
2022/04/14 06:19:26;;;;;;;0.40;0.40;;;;;;;14.31;40.90;98109.41;5074283;28;20040;-64
2022/04/14 06:21:51;;;;;;;0.95;0.95;;;;;;;14.30;40.97;98120.72;5074262;28;20029;-63
2022/04/14 06:24:17;;;;;;;1.52;1.00;;;;;;;14.32;41.02;98113.78;5074335;28;20024;-63
2022/04/14 06:26:43;;;;;;;1.10;1.00;;;;;;;14.38;41.06;98120.16;5074253;28;20441;-61
2022/04/14 06:29:09;;;;;;;0.55;0.55;;;;;;;14.43;41.07;98113.78;5086304;28;20035;-61
2022/04/14 06:31:35;;;;;;;0.60;0.52;;;;;;;14.37;40.99;98132.31;5092172;28;20619;-61
2022/04/14 06:34:08;;;;;;;0.50;0.50;;;;;;;14.30;41.19;98123.47;5092837;28;20414;-62
2022/04/14 06:36:33;;;;;;;0.90;0.90;;;;;;;14.31;40.89;98130.66;5091582;28;20629;-61
2022/04/14 06:38:59;;;;;;;1.63;0.93;;;;;;;14.37;40.96;98119.34;5088552;28;20122;-62
2022/04/14 06:41:26;;;;;;;0.77;0.60;;;;;;;14.34;41.01;98119.88;5084552;28;20051;-62
2022/04/14 06:43:52;;;;;;;1.38;0.98;;;;;;;14.27;41.07;98124.84;5087359;28;20126;-63
2022/04/14 06:46:18;;;;;;;4.93;1.33;;;;;;;14.15;41.26;98129.84;5092826;28;20028;-62
2022/04/14 06:48:44;;;;;;;0.70;0.70;;;;;;;14.10;41.59;98130.63;5091687;28;20031;-63
2022/04/14 06:51:11;;;;;;;0.55;0.55;;;;;;;14.19;41.47;98133.69;5091656;28;20036;-61
2022/04/14 06:53:38;;;;;;;0.38;0.38;;;;;;;14.23;41.46;98140.31;5086864;28;20039;-61
2022/04/14 06:56:07;;;;;;;0.73;0.73;;;;;;;14.34;41.17;98143.94;5091593;28;20034;-62
2022/04/14 06:58:33;;;;;;;0.98;0.98;;;;;;;14.44;40.76;98151.38;5093487;28;20067;-61
2022/04/14 07:00:58;;;;;;;0.88;0.85;;;;;;;14.59;40.66;98151.38;5094157;28;20059;-63
2022/04/14 07:03:26;;;;;;;0.30;0.30;;;;;;;14.78;40.36;98145.28;5092899;28;20036;-61
2022/04/14 07:05:56;;;;;;;0.43;0.43;;;;;;;14.93;40.06;98134.22;5093339;28;20032;-63
2022/04/14 07:08:25;;;;;;;1.50;0.95;;;;;;;15.06;40.12;98136.38;5091856;28;20032;-63
2022/04/14 07:10:52;;;;;;;0.40;0.40;;;;;;;15.28;39.59;98143.50;5092768;28;20116;-63
2022/04/14 07:13:17;;;;;;;3.13;1.15;;;;;;;15.41;39.71;98134.63;5093387;28;20024;-62
2022/04/14 07:15:44;;;;;;;0.55;0.55;;;;;;;15.57;39.68;98145.59;5092289;28;20039;-62
2022/04/14 07:18:10;;;;;;;0.93;0.73;;;;;;;15.75;39.50;98142.19;5089745;28;20093;-63
2022/04/14 07:20:36;;;;;;;0.90;0.70;;;;;;;15.92;39.04;98143.78;5092424;28;20039;-62
2022/04/14 07:23:03;;;;;;;0.30;0.30;;;;;;;16.09;39.13;98141.47;5093060;28;20413;-62
2022/04/14 07:25:35;;;;;;;0.82;0.75;;;;;;;16.23;38.66;98138.03;5093077;28;20115;-62
2022/04/14 07:28:01;;;;;;;0.30;0.30;;;;;;;16.28;38.77;98129.69;5124612;27;20024;-62
2022/04/14 07:30:27;;;;;;;0.60;0.60;;;;;;;16.32;38.72;98135.47;5092889;28;20026;-62
2022/04/14 07:32:54;;;;;;;0.57;0.57;;;;;;;16.27;38.89;98128.84;5092926;28;20073;-61
2022/04/14 07:35:22;;;;;;;0.45;0.45;;;;;;;16.14;39.48;98128.69;5092952;28;20032;-62
2022/04/14 07:37:49;;;;;;;2.63;0.65;;;;;;;16.01;39.71;98136.53;5092435;28;20024;-62
2022/04/14 07:40:15;;;;;;;0.57;0.57;;;;;;;15.96;39.37;98139.34;5080303;28;20543;-61
2022/04/14 07:42:43;;;;;;;10.98;0.80;;;;;;;15.99;39.59;98130.44;5091872;28;20118;-63
2022/04/14 07:45:10;;;;;;;0.35;0.35;;;;;;;16.13;39.53;98115.97;5093089;28;20107;-63
2022/04/14 07:47:43;;;;;;;1.02;0.75;;;;;;;16.26;39.25;98118.06;5093193;28;20385;-62
2022/04/14 07:50:10;;;;;;;0.90;0.63;;;;;;;16.40;39.06;98116.28;5092754;28;20031;-61
2022/04/14 07:52:52;;;;;;;0.98;0.93;;;;;;;16.53;38.69;98117.53;5091472;28;20040;-61
2022/04/14 07:55:28;;;;;;;0.73;0.38;;;;;;;16.58;38.59;98108.38;5092654;28;20160;-62
2022/04/14 07:57:56;;;;;;;0.40;0.40;;;;;;;16.87;38.26;98099.22;5092860;28;20056;-64
2022/04/14 08:00:23;;;;;;;0.50;0.50;;;;;;;17.42;37.42;98093.34;5092523;28;20036;-62
2022/04/14 08:02:58;;;;;;;0.40;0.40;;;;;;;17.81;36.91;98093.03;5081020;28;20477;-63
2022/04/14 08:05:35;;;;;;;0.60;0.50;;;;;;;17.99;36.70;98097.00;5070637;28;20440;-60
2022/04/14 08:08:06;;;;;;;0.30;0.30;;;;;;;18.00;36.88;98086.69;5072467;28;20440;-61
2022/04/14 08:10:31;;;;;;;2.85;0.63;;;;;;;17.82;37.23;98082.78;5071943;28;20056;-61
2022/04/14 08:12:57;;;;;;;0.77;0.77;;;;;;;17.72;37.66;98092.06;5071955;28;20486;-62
2022/04/14 08:15:24;;;;;;;0.38;0.38;;;;;;;17.70;37.81;98091.56;5072017;28;20035;-61
2022/04/14 08:17:50;;;;;;;0.60;0.60;;;;;;;17.57;37.90;98100.63;5072398;28;20387;-62
2022/04/14 08:20:17;;;;;;;0.45;0.45;;;;;;;17.47;38.09;98102.41;5071997;28;20028;-60
2022/04/14 08:22:51;;;;;;;2.10;1.05;;;;;;;17.48;38.29;98106.84;5071829;28;20516;-60
2022/04/14 08:25:24;;;;;;;0.40;0.40;;;;;;;17.26;38.58;98103.81;5071903;28;20037;-61
2022/04/14 08:27:50;;;;;;;0.98;0.70;;;;;;;17.15;38.66;98108.63;5071775;28;20059;-61
2022/04/14 08:30:18;;;;;;;0.25;0.22;;;;;;;17.25;38.66;98108.50;5071555;28;20444;-61
2022/04/14 08:32:46;;;;;;;0.32;0.32;;;;;;;17.48;38.36;98103.25;5071216;28;20143;-61
2022/04/14 08:35:12;;;;;;;0.80;0.50;;;;;;;17.72;37.91;98094.84;5069997;28;20393;-64
2022/04/14 08:37:40;;;;;;;0.30;0.30;;;;;;;17.88;37.59;98098.25;5071676;28;20482;-60
2022/04/14 08:40:07;;;;;;;0.45;0.40;;;;;;;17.75;37.92;98087.88;5082183;28;20035;-62
2022/04/14 08:42:43;;;;;;;0.13;0.13;;;;;;;17.74;37.77;98089.84;5071361;28;20044;-60
2022/04/14 08:45:12;;;;;;;0.52;0.52;;;;;;;17.81;37.84;98095.00;5071473;28;20075;-62
2022/04/14 08:47:42;;;;;;;0.20;0.20;;;;;;;17.87;37.68;98091.03;5071477;28;20032;-61
2022/04/14 08:50:12;;;;;;;0.50;0.50;;;;;;;17.83;37.72;98087.22;5071225;28;20040;-61
2022/04/14 08:52:39;;;;;;;0.22;0.22;;;;;;;17.75;38.08;98085.91;5071279;28;20078;-62
2022/04/14 08:55:08;;;;;;;0.22;0.22;;;;;;;17.73;38.18;98085.41;5071971;28;20482;-60
2022/04/14 08:57:35;;;;;;;0.30;0.30;;;;;;;17.63;38.21;98089.16;5072292;28;20037;-61
2022/04/14 09:00:03;;;;;;;0.68;0.68;;;;;;;17.53;38.21;98094.84;5090908;28;20378;-60
2022/04/14 09:02:28;;;;;;;0.60;0.50;;;;;;;17.42;38.58;98094.16;5091173;28;20040;-64
2022/04/14 09:04:57;;;;;;;0.90;0.82;;;;;;;17.30;38.68;98083.47;5092095;28;20393;-61
2022/04/14 09:07:23;;;;;;;4.60;0.80;;;;;;;17.10;39.07;98098.41;5092156;28;20119;-64
2022/04/14 09:09:49;;;;;;;0.30;0.30;;;;;;;16.92;39.18;98097.25;5091333;28;20119;-63
2022/04/14 09:12:15;;;;;;;0.32;0.32;;;;;;;16.79;39.48;98100.69;5092667;28;20064;-63
2022/04/14 09:14:41;;;;;;;0.52;0.47;;;;;;;16.73;39.30;98101.88;5092114;28;20051;-66
2022/04/14 09:17:08;;;;;;;0.50;0.50;;;;;;;16.70;39.28;98106.03;5090513;28;20066;-63
2022/04/14 09:19:36;;;;;;;0.43;0.43;;;;;;;16.70;39.31;98105.22;5091894;28;20067;-64
2022/04/14 09:22:21;;;;;;;0.28;0.28;;;;;;;16.76;39.20;98104.84;5091906;28;20044;-64
2022/04/14 09:24:55;;;;;;;1.35;0.40;;;;;;;16.83;38.94;98093.44;5090850;28;20181;-64
2022/04/14 09:27:24;;;;;;;;;;;;;;;16.92;39.01;98091.69;5092076;28;20056;-63
2022/04/14 09:29:50;;;;;;;0.30;0.30;;;;;;;17.00;38.76;98098.53;5091791;28;20288;-65
2022/04/14 09:32:36;;;;;;;0.35;0.35;;;;;;;17.05;38.78;98098.50;5091495;28;20087;-63
2022/04/14 09:35:03;;;;;;;0.25;0.25;;;;;;;17.02;38.63;98095.47;5091404;28;20032;-63
2022/04/14 09:37:30;;;;;;;0.30;0.30;;;;;;;16.96;38.84;98094.69;5090105;28;20036;-62
2022/04/14 09:40:05;;;;;;;0.40;0.40;;;;;;;16.94;38.85;98089.44;5091618;28;20398;-63
2022/04/14 09:42:42;;;;;;;0.70;0.65;;;;;;;16.99;38.61;98091.34;5089627;28;20069;-66
2022/04/14 09:45:28;;;;;;;1.17;0.32;;;;;;;17.12;38.65;98090.66;5101154;28;20505;-63
2022/04/14 09:48:00;;;;;;;0.30;0.30;;;;;;;17.23;38.29;98085.78;5094087;28;20080;-64
2022/04/14 09:50:35;;;;;;;0.70;0.70;;;;;;;17.34;38.17;98081.78;5096175;28;20039;-65
2022/04/14 09:53:07;;;;;;;0.35;0.35;;;;;;;17.45;38.16;98071.34;5094516;28;20032;-64
2022/04/14 09:55:57;;;;;;;1.00;0.38;;;;;;;17.66;37.72;98073.84;5096618;28;20039;-63
2022/04/14 10:01:47;;;;;;;5.47;1.40;;;;;;;17.96;37.30;98083.72;5093485;28;20071;-64
2022/04/14 10:04:34;;;;;;;1.27;1.10;;;;;;;18.02;37.45;98084.44;5099721;28;20040;-61
2022/04/14 10:10:43;;;;;;;0.20;0.20;;;;;;;18.29;37.19;98105.16;5072048;28;20051;-64
2022/04/14 10:13:13;;;;;;;0.20;0.20;;;;;;;18.29;37.03;98099.59;5078823;28;20474;-62
2022/04/14 10:15:48;;;;;;;0.30;0.30;;;;;;;18.26;37.38;98091.88;5074913;28;20039;-68
2022/04/14 10:18:18;;;;;;;0.20;0.20;;;;;;;18.30;37.15;98090.97;5074986;28;20041;-64
2022/04/14 10:20:45;;;;;;;0.50;0.45;;;;;;;18.45;37.04;98087.09;5075331;28;20054;-64
2022/04/14 10:23:14;;;;;;;0.32;0.32;;;;;;;18.60;36.92;98079.63;5072282;28;20143;-64
2022/04/14 10:25:40;;;;;;;1.13;1.00;;;;;;;18.72;36.62;98074.38;5075169;28;20037;-65
2022/04/14 10:28:13;;;;;;;0.20;0.20;;;;;;;18.77;36.63;98082.63;5075075;28;20056;-66
2022/04/14 10:30:40;;;;;;;2.53;0.55;;;;;;;18.81;36.67;98072.53;5074734;28;20047;-65
2022/04/14 10:33:06;;;;;;;0.20;0.20;;;;;;;18.88;36.62;98072.97;5075009;28;20414;-64
2022/04/14 10:35:32;;;;;;;0.40;0.40;;;;;;;18.94;36.55;98067.31;5074786;28;20044;-64
2022/04/14 10:38:22;;;;;;;0.20;0.20;;;;;;;18.91;36.61;98060.41;5075077;28;20036;-64
2022/04/14 10:40:53;;;;;;;0.90;0.47;;;;;;;18.96;36.47;98056.69;5074998;28;20044;-66
2022/04/14 10:43:22;;;;;;;0.32;0.32;;;;;;;19.01;36.58;98056.63;5074647;28;20028;-63
2022/04/14 10:45:51;;;;;;;0.17;0.17;;;;;;;19.07;36.49;98060.94;5074766;28;20082;-63
2022/04/14 10:48:31;;;;;;;0.90;0.90;;;;;;;18.95;36.56;98058.66;5075112;28;20028;-65
2022/04/14 10:51:24;;;;;;;0.15;0.15;;;;;;;18.84;36.91;98060.78;5074884;28;20406;-64
2022/04/14 10:54:01;;;;;;;0.20;0.20;;;;;;;18.77;36.84;98057.59;5074690;28;20035;-64
2022/04/14 10:56:42;;;;;;;0.75;0.75;;;;;;;18.74;36.86;98066.53;5075160;28;20033;-65
2022/04/14 10:59:12;;;;;;;1.05;0.93;;;;;;;18.87;36.72;98065.78;5074682;28;20035;-64
2022/04/14 11:01:50;;;;;;;0.20;0.20;;;;;;;19.08;36.46;98065.38;5074739;28;20028;-65
2022/04/14 11:04:30;;;;;;;0.98;0.65;;;;;;;19.19;36.25;98058.44;5074270;28;20093;-65
2022/04/14 11:07:09;;;;;;;0.52;0.47;;;;;;;19.19;36.33;98064.00;5074098;28;20036;-66
2022/04/14 11:09:57;;;;;;;0.20;0.20;;;;;;;19.01;36.65;98060.22;5074528;28;20039;-64
2022/04/14 11:12:55;;;;;;;0.13;0.13;;;;;;;18.62;37.04;98064.25;5075001;28;20036;-64
2022/04/14 11:15:31;;;;;;;0.60;0.60;;;;;;;18.25;37.85;98068.78;5069400;28;20036;-66
2022/04/14 11:18:06;;;;;;;4.13;0.85;;;;;;;18.02;37.86;98074.16;5073100;28;20516;-64
2022/04/14 11:20:34;;;;;;;0.10;0.10;;;;;;;18.07;37.79;98067.72;5074056;28;20043;-64
2022/04/14 11:23:17;;;;;;;0.32;0.32;;;;;;;18.35;37.29;98067.81;5073371;28;20036;-63
2022/04/14 11:25:45;;;;;;;0.53;0.53;;;;;;;18.55;37.09;98074.94;5074099;28;20036;-65
2022/04/14 11:28:33;;;;;;;0.30;0.30;;;;;;;18.62;36.91;98069.81;5074083;28;20170;-64
2022/04/14 11:30:58;;;;;;;1.00;0.43;;;;;;;18.52;36.92;98075.56;5074166;28;20094;-65
2022/04/14 11:33:29;;;;;;;0.30;0.30;;;;;;;18.42;37.17;98070.19;5073807;28;20032;-66
2022/04/14 11:40:09;;;;;;;0.52;0.52;;;;;;;18.11;37.58;98065.97;5071132;28;20510;-63
2022/04/14 11:50:02;;;;;;;0.25;0.25;;;;;;;17.65;38.19;98042.50;5064936;28;20098;-67
2022/04/14 11:53:07;;;;;;;0.40;0.40;;;;;;;17.59;38.25;98053.97;5066376;28;20064;-68
2022/04/14 11:58:57;;;;;;;0.43;0.30;;;;;;;17.42;38.40;98048.94;5072195;28;20371;-66
2022/04/14 12:01:22;;;;;;;0.10;0.10;;;;;;;17.40;38.28;98063.13;5071913;28;20041;-67
2022/04/14 12:03:48;;;;;;;0.52;0.52;;;;;;;17.41;38.28;98059.19;5072618;28;20047;-66
2022/04/14 12:06:18;;;;;;;0.20;0.20;;;;;;;17.42;38.27;98051.72;5071905;28;20029;-67
2022/04/14 12:08:58;;;;;;;0.20;0.20;;;;;;;17.31;38.25;98054.63;5072476;28;20522;-65
2022/04/14 12:11:29;;;;;;;0.55;0.38;;;;;;;17.16;38.65;98055.63;5072340;28;20036;-65
2022/04/14 12:13:55;;;;;;;0.32;0.32;;;;;;;17.11;38.65;98063.22;5072317;28;20110;-65
2022/04/14 12:16:20;;;;;;;0.35;0.35;;;;;;;17.10;38.87;98072.66;5071132;28;20514;-68
2022/04/14 12:18:51;;;;;;;0.30;0.30;;;;;;;17.14;38.75;98062.63;5072023;28;20406;-66
2022/04/14 12:21:19;;;;;;;0.85;0.63;;;;;;;17.18;38.63;98058.09;5071688;28;20410;-68
2022/04/14 12:23:50;;;;;;;0.20;0.20;;;;;;;17.27;38.38;98048.00;5071891;28;20036;-67
2022/04/14 12:26:17;;;;;;;0.40;0.40;;;;;;;17.35;38.34;98054.84;5068036;28;20482;-67
2022/04/14 12:28:45;;;;;;;0.32;0.32;;;;;;;17.36;38.46;98044.56;5068258;28;20028;-71
2022/04/14 12:31:16;;;;;;;0.88;0.82;;;;;;;17.33;38.48;98052.38;5065977;28;20449;-66
2022/04/14 12:33:54;;;;;;;0.30;0.30;;;;;;;17.29;38.48;98047.72;5068849;28;20031;-66
2022/04/14 12:36:20;;;;;;;0.30;0.30;;;;;;;17.27;38.55;98053.56;5069885;28;20051;-66
2022/04/14 12:38:47;;;;;;;0.50;0.50;;;;;;;17.27;38.84;98055.50;5070568;28;20438;-67
2022/04/14 12:41:20;;;;;;;0.40;0.40;;;;;;;17.27;38.54;98063.81;5069777;28;20032;-64
2022/04/14 12:43:48;;;;;;;1.25;0.30;;;;;;;17.26;38.64;98071.31;5069870;28;20619;-63
2022/04/14 12:46:28;;;;;;;0.32;0.32;;;;;;;17.28;38.75;98066.28;5069776;28;20041;-66
2022/04/14 12:49:11;;;;;;;0.77;0.47;;;;;;;17.28;38.68;98071.03;5067682;28;20051;-68
2022/04/14 12:51:40;;;;;;;0.30;0.30;;;;;;;17.27;38.85;98069.38;5069527;28;20033;-68
2022/04/14 12:54:07;;;;;;;0.20;0.20;;;;;;;17.28;38.91;98065.47;5070225;28;20386;-65
2022/04/14 12:56:36;;;;;;;0.45;0.45;;;;;;;17.33;38.74;98065.44;5070078;28;20039;-65
2022/04/14 12:59:12;;;;;;;0.30;0.30;;;;;;;17.38;38.53;98067.31;5068745;28;20089;-68
2022/04/14 13:01:46;;;;;;;0.30;0.30;;;;;;;17.45;38.72;98071.34;5070097;28;20040;-68
2022/04/14 13:04:12;;;;;;;0.20;0.20;;;;;;;17.54;38.62;98073.47;5069631;28;20039;-68
2022/04/14 13:06:39;;;;;;;0.20;0.20;;;;;;;17.69;38.45;98076.84;5069204;28;20036;-68
2022/04/14 13:09:15;;;;;;;0.57;0.52;;;;;;;17.86;38.12;98070.78;5068208;28;20032;-66
2022/04/14 13:11:42;;;;;;;0.35;0.35;;;;;;;17.94;38.09;98072.06;5069514;28;20032;-63
2022/04/14 13:14:24;;;;;;;0.30;0.30;;;;;;;18.04;37.91;98079.44;5069794;28;20029;-66
2022/04/14 13:16:52;;;;;;;0.30;0.30;;;;;;;18.11;38.10;98070.69;5069520;28;20399;-68
2022/04/14 13:19:18;;;;;;;0.55;0.50;;;;;;;18.06;38.14;98079.13;5069916;28;20032;-68
2022/04/14 13:21:44;;;;;;;0.20;0.20;;;;;;;17.98;38.37;98083.41;5068700;28;20094;-67
2022/04/14 13:24:11;;;;;;;0.10;0.10;;;;;;;17.93;38.41;98086.25;5067894;28;20039;-69
2022/04/14 13:26:37;;;;;;;0.75;0.43;;;;;;;17.84;38.41;98089.69;5066308;28;20406;-63
2022/04/14 13:29:04;;;;;;;0.20;0.20;;;;;;;17.79;38.70;98083.38;5069851;28;20052;-63
